Latest Weather Observations for Glen Innes Airport

IDN60801

Issued at 8:05 pm EST Monday 21 April 2014 (issued every 30 minutes, with the page automatically refreshed every 10 minutes)

About weather observations | Map of weather stations | Latest weather observations for NSW | Other Formats
Station Details ID: 056243 Name: GLEN INNES AIRPORT AWS Lat: -29.68 Lon: 151.69 Height: 1044.3 m
Data from the previous 72 hours. | See also: Recent months for locations in New South Wales
Date/Time
EST
Temp
°C
App
Temp
°C
Dew
Point
Rel
Hum
%
Delta-T
°C
Wind Press
QNH
hPa
Press
MSL
hPa
Rain
since 9 am
mm
Dir
 
Spd
km/h
Gust
km/h
Spd
kts
Gust
kts
21/08:00pm 8.8 6.6 5.4 79 1.6 E 6 7 3 4 1023.4 - 0.0
21/07:30pm 8.2 6.8 3.3 71 2.2 E 0 0 0 0 1023.0 - 0.0
21/07:00pm 10.2 9.2 5.4 72 2.3 CALM 0 0 0 0 1022.9 - 0.0
21/06:30pm 9.1 7.7 3.7 69 2.5 ENE 0 0 0 0 1022.6 - 0.0
21/06:00pm 13.5 11.3 5.4 58 4.0 NNE 6 7 3 4 1022.4 1019.1 0.0
21/05:30pm 15.7 13.4 5.9 52 5.0 WNW 7 9 4 5 1022.0 - 0.0
21/05:00pm 18.6 15.9 5.8 43 6.6 W 9 11 5 6 1021.9 - 0.0
21/04:30pm 19.7 15.7 5.0 38 7.6 W 15 20 8 11 1021.7 - 0.0
21/04:00pm 20.0 15.2 4.5 36 7.9 W 19 24 10 13 1021.5 - 0.0
21/03:30pm 20.7 16.5 5.9 38 7.8 W 17 24 9 13 1021.4 - 0.0
21/03:00pm 21.1 16.3 4.6 34 8.5 W 19 26 10 14 1021.4 1018.0 0.0
21/02:30pm 20.7 15.6 3.9 33 8.5 W 20 28 11 15 1021.4 - 0.0
21/02:00pm 20.8 15.3 4.0 33 8.5 W 22 30 12 16 1021.6 - 0.0
21/01:30pm 20.7 15.0 4.7 35 8.2 W 24 33 13 18 1021.8 - 0.0
21/01:00pm 21.2 15.5 5.1 35 8.4 WNW 24 35 13 19 1022.3 - 0.0
21/12:30pm 20.1 13.1 4.2 35 8.1 WNW 30 41 16 22 1022.6 - 0.0
21/12:00pm 21.0 16.1 6.9 40 7.5 WNW 22 30 12 16 1023.0 1019.7 0.0
21/11:30am 20.0 15.6 7.4 44 6.8 NW 20 30 11 16 1023.3 - 0.0
21/11:00am 19.7 14.8 7.1 44 6.7 NW 22 32 12 17 1023.5 - 0.0
21/10:30am 18.6 13.7 6.8 46 6.2 NW 22 28 12 15 1023.8 - 0.0
21/10:00am 18.2 14.9 8.2 52 5.4 WNW 15 20 8 11 1023.9 - 0.0
21/09:30am 17.0 13.5 7.4 53 5.1 NW 15 19 8 10 1024.0 - 0.0
21/09:00am 16.2 12.7 7.2 55 4.7 WNW 15 20 8 11 1023.9 1020.6 0.0
21/08:30am 14.4 11.4 7.5 63 3.6 WNW 13 15 7 8 1023.7 - 0.0
21/08:00am 11.6 11.2 8.1 79 1.8 CALM 0 2 0 1 1023.6 - 0.0
21/07:30am 6.7 4.8 6.6 99 0.0 E 6 7 3 4 1023.4 - 0.0
21/07:00am 3.0 - 3.1 - - CALM 0 9 0 5 1023.1 - 0.0
21/06:30am 0.8 -2.4 0.8 100 0.0 ESE 7 7 4 4 1022.6 - 0.0
21/06:00am 1.0 - 1.1 - - CALM 0 0 0 0 1022.3 1019.0 0.0
21/05:30am 0.6 -2.1 0.6 100 0.0 ESE 4 6 2 3 1022.0 - 0.0
21/05:00am 0.3 -2.8 0.2 99 0.0 ESE 6 7 3 4 1021.6 - 0.0
21/04:30am 0.7 -2.3 0.6 99 0.0 ESE 6 7 3 4 1021.4 - 0.0
21/04:00am 1.4 -1.7 1.4 100 0.0 SE 7 9 4 5 1021.3 - 0.0
21/03:30am 0.9 -2.1 0.8 99 0.0 ESE 6 7 3 4 1021.2 - 0.0
21/03:00am 0.9 -2.1 0.6 98 0.1 ESE 6 9 3 5 1021.2 1017.8 0.0
21/02:30am 2.0 -0.8 2.0 100 0.0 ESE 6 7 3 4 1021.2 - 0.0
21/02:00am 1.5 -1.6 1.2 98 0.1 ESE 7 9 4 5 1021.2 - 0.0
21/01:30am 2.4 -1.3 2.3 99 0.0 E 11 13 6 7 1021.4 - 0.0
21/01:00am 2.2 -0.8 1.9 98 0.1 ESE 7 9 4 5 1021.6 - 0.0
21/12:30am 2.7 -0.3 2.1 96 0.3 ESE 7 9 4 5 1021.6 - 0.0
21/12:00am 3.1 0.2 2.5 96 0.3 ESE 7 9 4 5 1021.5 1018.2 0.0
 
Date/Time
EST
Temp
°C
App
Temp
°C
Dew
Point
Rel
Hum
%
Delta-T
°C
Wind Press
QNH
hPa
Press
MSL
hPa
Rain
since 9 am
mm
Dir
 
Spd
km/h
Gust
km/h
Spd
kts
Gust
kts
20/11:30pm 3.3 0.4 2.6 95 0.3 SE 7 9 4 5 1021.5 - 0.0
20/11:00pm 2.7 -0.7 1.7 93 0.4 SE 9 13 5 7 1021.5 - 0.0
20/10:30pm 3.8 0.9 2.8 93 0.4 E 7 11 4 6 1021.6 - 0.0
20/10:00pm 4.2 1.6 3.2 93 0.4 SE 6 7 3 4 1021.7 - 0.0
20/09:30pm 4.5 1.8 2.4 86 0.9 SE 6 9 3 5 1021.6 - 0.0
20/09:00pm 5.4 2.1 2.4 81 1.3 SSE 9 11 5 6 1021.4 1018.0 0.0
20/08:30pm 6.8 4.3 3.6 80 1.5 SSE 6 7 3 4 1021.3 - 0.0
20/08:00pm 7.0 5.6 3.4 78 1.6 CALM 0 0 0 0 1021.0 - 0.0
20/07:30pm 7.7 6.2 3.0 72 2.1 CALM 0 0 0 0 1020.8 - 0.0
20/07:00pm 10.8 9.6 4.7 66 2.9 CALM 0 0 0 0 1020.7 - 0.0
20/06:30pm 10.5 9.2 4.0 64 3.1 CALM 0 0 0 0 1020.4 - 0.0
20/06:00pm 13.5 10.9 4.4 54 4.4 W 7 9 4 5 1020.0 1016.7 0.0
20/05:30pm 14.6 10.9 4.3 50 5.0 W 13 13 7 7 1019.8 - 0.0
20/05:00pm 17.5 13.7 3.8 40 6.8 W 13 19 7 10 1019.7 - 0.0
20/04:30pm 18.7 13.8 4.1 38 7.3 W 19 24 10 13 1019.5 - 0.0
20/04:00pm 19.2 14.2 3.4 35 7.9 W 19 24 10 13 1019.4 - 0.0
20/03:30pm 19.7 14.7 3.8 35 8.0 WSW 19 30 10 16 1019.3 - 0.0
20/03:00pm 20.0 13.8 4.5 36 7.9 WNW 26 33 14 18 1019.3 1015.9 0.0
20/02:30pm 19.8 15.8 5.1 38 7.6 W 15 30 8 16 1019.3 - 0.0
20/02:00pm 19.5 14.8 5.2 39 7.4 WNW 19 30 10 16 1019.3 - 0.0
20/01:30pm 19.8 15.0 4.7 37 7.7 WNW 19 35 10 19 1019.4 - 0.0
20/01:00pm 19.6 14.8 5.6 40 7.3 W 20 32 11 17 1019.5 - 0.0
20/12:30pm 19.5 13.7 4.4 37 7.7 W 24 33 13 18 1019.8 - 0.0
20/12:00pm 19.2 13.2 5.3 40 7.1 WNW 26 32 14 17 1020.3 1016.9 0.0
20/11:30am 18.8 13.9 5.3 41 6.9 W 20 33 11 18 1020.6 - 0.0
20/11:00am 18.6 14.1 6.1 44 6.5 W 19 30 10 16 1020.9 - 0.0
20/10:30am 18.3 12.9 6.2 45 6.3 WNW 24 33 13 18 1021.4 - 0.0
20/10:00am 17.1 12.8 5.1 45 6.1 W 17 22 9 12 1021.6 - 0.0
20/09:30am 16.7 14.4 7.4 54 4.9 WNW 9 17 5 9 1021.6 - 0.0
20/09:00am 14.6 13.0 7.9 64 3.5 NNE 6 11 3 6 1021.6 1018.3 0.0
20/08:30am 12.3 10.0 7.4 72 2.5 E 9 11 5 6 1021.5 - 0.0
20/08:00am 10.1 7.8 7.5 84 1.3 E 9 11 5 6 1021.2 - 0.0
20/07:30am 7.4 5.5 6.8 96 0.3 ESE 6 7 3 4 1020.8 - 0.0
20/07:00am 3.6 0.9 3.5 99 0.0 ESE 7 7 4 4 1020.7 - 0.0
20/06:30am 2.1 -2.0 2.1 100 0.0 ESE 13 15 7 8 1020.4 - 0.0
20/06:00am 2.2 -2.3 2.2 100 0.0 E 15 17 8 9 1020.0 1016.7 0.0
20/05:30am 2.3 - 2.4 - - E 13 15 7 8 1019.7 - 0.0
20/05:00am 1.8 -1.2 1.8 100 0.0 E 7 9 4 5 1019.5 - 0.0
20/04:30am 1.4 -1.7 1.1 98 0.1 E 7 11 4 6 1019.3 - 0.0
20/04:00am 1.9 -1.9 1.8 99 0.0 E 11 13 6 7 1019.0 - 0.0
20/03:30am 2.1 -0.9 1.8 98 0.1 ESE 7 9 4 5 1019.2 - 0.0
20/03:00am 2.7 0.0 2.4 98 0.1 ESE 6 9 3 5 1019.3 1015.9 0.0
20/02:30am 2.5 -0.8 2.2 98 0.1 E 9 13 5 7 1019.2 - 0.0
20/02:00am 2.4 -0.4 1.8 96 0.2 ESE 6 9 3 5 1019.4 - 0.0
20/01:30am 3.7 2.2 3.0 95 0.3 CALM 0 0 0 0 1019.7 - 0.0
20/01:00am 3.3 0.3 2.3 93 0.4 ESE 7 11 4 6 1019.6 - 0.0
20/12:30am 4.7 1.6 3.7 93 0.4 E 9 11 5 6 1019.7 - 0.0
20/12:00am 5.4 2.5 4.8 96 0.3 E 9 11 5 6 1019.7 1016.4 0.0
 
Date/Time
EST
Temp
°C
App
Temp
°C
Dew
Point
Rel
Hum
%
Delta-T
°C
Wind Press
QNH
hPa
Press
MSL
hPa
Rain
since 9 am
mm
Dir
 
Spd
km/h
Gust
km/h
Spd
kts
Gust
kts
19/11:30pm 4.5 1.0 3.3 92 0.5 ESE 11 13 6 7 1019.8 - 0.0
19/11:00pm 5.0 2.3 3.7 91 0.6 E 7 9 4 5 1019.8 - 0.0
19/10:30pm 5.3 2.2 3.5 88 0.8 ESE 9 11 5 6 1019.8 - 0.0
19/10:00pm 6.8 4.4 5.1 89 0.8 ESE 7 9 4 5 1020.0 - 0.0
19/09:30pm 7.3 4.4 4.4 82 1.3 ESE 9 11 5 6 1020.2 - 0.0
19/09:00pm 8.2 5.7 5.0 80 1.5 S 7 11 4 6 1020.0 1016.7 0.0
19/08:30pm 7.3 4.7 4.3 81 1.4 SE 7 9 4 5 1019.8 - 0.0
19/08:00pm 8.6 6.1 5.0 78 1.7 E 7 9 4 5 1019.7 - 0.0
19/07:30pm 9.5 7.2 4.9 73 2.2 E 6 7 3 4 1019.4 - 0.0
19/07:00pm 10.9 9.1 5.2 68 2.8 E 4 7 2 4 1019.0 - 0.0
19/06:30pm 10.7 9.6 5.0 68 2.8 CALM 0 0 0 0 1018.6 - 0.0
19/06:00pm 13.6 12.4 4.5 54 4.4 CALM 0 6 0 3 1018.3 1014.9 0.0
19/05:30pm 15.3 12.8 4.7 49 5.3 SW 7 9 4 5 1017.9 - 0.0
19/05:00pm 16.0 13.5 5.0 48 5.5 SW 7 9 4 5 1017.9 - 0.0
19/04:30pm 16.0 11.9 4.4 46 5.7 W 15 19 8 10 1017.7 - 0.0
19/04:00pm 17.9 12.9 4.8 42 6.6 W 20 26 11 14 1017.4 - 0.0
19/03:30pm 18.6 14.4 5.5 42 6.8 SW 17 24 9 13 1017.4 - 0.0
19/03:00pm 18.3 13.4 5.2 42 6.7 SW 20 28 11 15 1017.4 1014.0 0.0
19/02:30pm 18.4 13.8 6.3 45 6.3 WSW 20 32 11 17 1017.4 - 0.0
19/02:00pm 18.3 13.0 5.2 42 6.7 WSW 22 30 12 16 1017.6 - 0.0
19/01:30pm 18.0 12.7 4.9 42 6.6 WSW 22 33 12 18 1017.7 - 0.0
19/01:00pm 18.3 13.6 6.2 45 6.3 SW 20 32 11 17 1018.1 - 0.0
19/12:30pm 18.1 13.3 5.7 44 6.4 SW 20 32 11 17 1018.5 - 0.0
19/12:00pm 17.8 12.6 5.7 45 6.2 SW 22 30 12 16 1018.7 1015.3 0.0
19/11:30am 17.1 11.8 4.8 44 6.2 WSW 22 33 12 18 1019.4 - 0.0
19/11:00am 17.0 11.9 4.0 42 6.4 SW 20 30 11 16 1019.7 - 0.0
19/10:30am 16.7 11.4 5.0 46 5.9 S 22 32 12 17 1019.9 - 0.0
19/10:00am 16.0 11.6 5.0 48 5.5 SW 17 30 9 16 1020.2 - 0.0
19/09:30am 15.2 10.8 4.9 50 5.1 WSW 17 26 9 14 1020.3 - 0.0
19/09:00am 15.0 13.7 5.8 54 4.6 SE 2 13 1 7 1020.4 1017.0 0.0
19/08:30am 13.0 11.1 6.6 65 3.3 E 6 6 3 3 1020.4 - 0.0
19/08:00am 9.9 7.5 7.2 83 1.4 E 9 9 5 5 1020.3 - 0.0
19/07:30am 7.1 5.3 7.0 99 0.0 SE 6 7 3 4 1020.2 - 0.0
19/07:00am 2.3 -0.7 2.3 100 0.0 ESE 7 9 4 5 1019.8 - 0.0
19/06:30am 0.4 -2.7 0.4 100 0.0 ESE 6 7 3 4 1019.6 - 0.0
19/06:00am 0.6 -2.5 0.3 98 0.1 ESE 6 7 3 4 1019.4 1016.0 0.0
19/05:30am 1.1 -2.1 0.8 98 0.1 E 7 9 4 5 1019.2 - 0.0
19/05:00am 1.2 -2.0 0.6 96 0.2 E 7 9 4 5 1018.9 - 0.0
19/04:30am 2.9 0.1 2.9 100 0.0 E 7 7 4 4 1018.7 - 0.0
19/04:00am 2.6 0.3 2.6 100 0.0 E 4 6 2 3 1018.7 - 0.0
19/03:30am 0.7 -2.6 0.1 96 0.2 E 7 7 4 4 1018.6 - 0.0
19/03:00am 1.4 -1.6 1.0 97 0.2 ESE 6 6 3 3 1018.7 1015.3 0.0
19/02:30am 2.2 -0.6 1.9 98 0.1 ESE 6 7 3 4 1018.9 - 0.0
19/02:00am 2.1 -0.7 2.0 99 0.0 ESE 6 7 3 4 1019.0 - 0.0
19/01:30am 1.2 -1.5 0.6 96 0.2 ESE 4 9 2 5 1019.4 - 0.0
19/01:00am 1.9 -0.3 1.2 95 0.3 ESE 2 6 1 3 1019.4 - 0.0
19/12:30am 1.7 -1.4 0.4 91 0.5 ESE 6 7 3 4 1019.4 - 0.0
19/12:00am 2.3 -1.0 0.2 86 0.8 ESE 7 9 4 5 1019.3 1015.9 0.0
 
Date/Time
EST
Temp
°C
App
Temp
°C
Dew
Point
Rel
Hum
%
Delta-T
°C
Wind Press
QNH
hPa
Press
MSL
hPa
Rain
since 9 am
mm
Dir
 
Spd
km/h
Gust
km/h
Spd
kts
Gust
kts
18/11:30pm 3.0 -0.2 0.7 85 0.9 SSE 7 9 4 5 1019.4 - 0.0
18/11:00pm 4.0 0.4 0.7 79 1.4 S 9 11 5 6 1019.6 - 0.0
18/10:30pm 6.2 3.3 2.5 77 1.6 SSE 7 9 4 5 1019.6 - 0.0
18/10:00pm 5.3 2.3 1.8 78 1.5 ESE 7 7 4 4 1019.7 - 0.0
18/09:30pm 5.2 2.3 1.5 77 1.6 SSE 6 7 3 4 1019.7 - 0.0
18/09:00pm 5.5 2.4 1.1 73 1.9 SSW 7 9 4 5 1019.6 1016.2 0.0
18/08:30pm 7.8 4.3 1.4 64 2.8 SSW 9 13 5 7 1019.6 - 0.0

Other Formats:

Comma delimited format used in spreadsheet applications
http://www.bom.gov.au/fwo/IDN60801/IDN60801.94588.axf

JavaScript Object Notation format (JSON) in row-major order
http://www.bom.gov.au/fwo/IDN60801/IDN60801.94588.json